This is the latest recevied weather packets stored in our database for station/object W0CHP-13. If no packets are shown the sender has not sent any weather packets the latest 10 day(s).
| Time | Temp. | Humidity | Pressure | Rain* | Wind** | Luminosity | Snow |
|---|---|---|---|---|---|---|---|
| 1777914198 | 25° C | 29% | 995.8 hPa | 0 mm | - | 579 W/m² | - |
| 1777913596 | 25° C | 28% | 996 hPa | 0 mm | - | 594 W/m² | - |
| 1777912998 | 23.89° C | 31% | 995.8 hPa | 0 mm | - | 579 W/m² | - |
| 1777912397 | 23.89° C | 31% | 995.8 hPa | 0 mm | - | 524 W/m² | - |
| 1777911795 | 23.89° C | 32% | 995.8 hPa | 0 mm | - | 437 W/m² | - |
| 1777911197 | 24.44° C | 32% | 995.8 hPa | 0 mm | - | 495 W/m² | - |
| 1777910595 | 25.56° C | 30% | 995.6 hPa | 0 mm | - | 597 W/m² | - |
| 1777909997 | 24.44° C | 32% | 995.8 hPa | 0 mm | - | 647 W/m² | - |
| 1777909396 | 23.89° C | 32% | 995.8 hPa | 0 mm | - | 586 W/m² | - |
| 1777908798 | 23.33° C | 30% | 995.6 hPa | 0 mm | - | 440 W/m² | - |
| 1777908196 | 22.78° C | 32% | 995.6 hPa | 0 mm | - | 554 W/m² | - |
| 1777907598 | 21.11° C | 33% | 995.8 hPa | 0 mm | - | 327 W/m² | - |
| 1777906996 | 21.67° C | 33% | 996 hPa | 0 mm | - | 351 W/m² | - |
| 1777906398 | 21.67° C | 32% | 995.8 hPa | 0 mm | - | 345 W/m² | - |
| 1777905797 | 21.67° C | 33% | 995.4 hPa | 0 mm | - | 345 W/m² | - |
| 1777905195 | 21.67° C | 31% | 995.4 hPa | 0 mm | - | 325 W/m² | - |
| 1777904597 | 21.67° C | 33% | 995.6 hPa | 0 mm | - | 284 W/m² | - |
| 1777903995 | 21.67° C | 34% | 995.8 hPa | 0 mm | - | 258 W/m² | - |
| 1777903398 | 20.56° C | 35% | 995.6 hPa | 0 mm | - | 300 W/m² | - |
| 1777902796 | 20° C | 34% | 995.4 hPa | 0 mm | - | 287 W/m² | - |
| 1777902198 | 18.89° C | 36% | 995.2 hPa | 0 mm | - | 192 W/m² | - |
| 1777901596 | 18.89° C | 35% | 995.4 hPa | 0 mm | - | 166 W/m² | - |
| 1777900999 | 18.33° C | 35% | 995.2 hPa | 0 mm | - | 250 W/m² | - |
| 1777900397 | 17.22° C | 37% | 995.4 hPa | 0 mm | - | 148 W/m² | - |
| 1777899795 | 16.11° C | 40% | 995.4 hPa | 0 mm | - | 111 W/m² | - |
* Rain latest hour (hover to see other rain measurements)
** Current wind speed in m/s (hover to see current wind gust speed)